Time;durP1;ratioP1;P1;durP2;ratioP2;P2;SDS_P1;SDS_P2;PMS_P1;PMS_P2;Temp;Humidity;BMP_temperature;BMP_pressure;BME280_temperature;BME280_humidity;BME280_pressure;Samples;Min_cycle;Max_cycle;Signal;HPM_P1;HPM_P2
2022/01/17 00:01:13;;;;;;;475.30;452.40;;;6.90;99.90;;;;;;4390791;32;20576;-65
2022/01/17 00:03:40;;;;;;;494.43;470.70;;;6.80;99.90;;;;;;4390410;32;20313;-66
2022/01/17 00:06:07;;;;;;;459.20;437.77;;;6.80;99.90;;;;;;4390586;32;20170;-64
2022/01/17 00:08:44;;;;;;;;;;;;;;;;;;;;;
2022/01/17 00:11:14;;;;;;;453.53;432.83;;;6.80;99.90;;;;;;4405206;32;20175;-66
2022/01/17 00:13:41;;;;;;;444.03;423.37;;;6.80;99.90;;;;;;4406549;32;20636;-66
2022/01/17 00:16:12;;;;;;;427.17;407.53;;;6.80;99.90;;;;;;4405475;32;20182;-66
2022/01/17 00:21:24;;;;;;;355.83;340.30;;;6.80;99.90;;;;;;4386452;32;20226;-66
2022/01/17 00:23:51;;;;;;;377.83;360.80;;;6.90;99.90;;;;;;4373830;32;20178;-67
2022/01/17 00:26:18;;;;;;;361.57;344.93;;;6.90;99.90;;;;;;4385985;32;20176;-66
2022/01/17 00:28:45;;;;;;;362.63;346.17;;;6.90;99.90;;;;;;4388219;32;20155;-66
2022/01/17 00:31:12;;;;;;;389.53;371.90;;;6.90;99.90;;;;;;4389026;32;20639;-64
2022/01/17 00:33:40;;;;;;;395.10;377.60;;;6.90;99.90;;;;;;4389846;32;20155;-62
2022/01/17 00:36:07;;;;;;;411.53;393.17;;;6.90;99.90;;;;;;4389153;32;20148;-63
2022/01/17 00:38:34;;;;;;;406.53;387.80;;;7.00;99.90;;;;;;4386702;32;20183;-65
2022/01/17 00:41:04;;;;;;;422.67;403.33;;;7.00;99.90;;;;;;4382824;32;20255;-62
2022/01/17 00:43:30;;;;;;;411.23;392.73;;;7.10;99.90;;;;;;4385549;32;20211;-64
2022/01/17 00:45:57;;;;;;;406.57;387.33;;;7.10;99.90;;;;;;4384294;32;20221;-67
2022/01/17 00:48:24;;;;;;;431.93;412.13;;;7.10;99.90;;;;;;4388554;32;20227;-64
2022/01/17 00:50:55;;;;;;;401.17;382.30;;;7.00;99.90;;;;;;4388047;32;20201;-66
2022/01/17 00:53:25;;;;;;;403.37;385.00;;;7.10;99.90;;;;;;4389814;32;20149;-67
2022/01/17 00:55:51;;;;;;;381.83;364.47;;;7.10;99.90;;;;;;4375316;32;20699;-62
2022/01/17 00:58:18;;;;;;;383.33;365.90;;;7.00;99.90;;;;;;4379230;32;20187;-65
2022/01/17 01:00:48;;;;;;;381.20;364.07;;;7.00;99.90;;;;;;4390182;32;20153;-64
2022/01/17 01:03:15;;;;;;;381.20;364.00;;;7.00;99.90;;;;;;4391367;32;20171;-65
2022/01/17 01:05:42;;;;;;;390.43;372.50;;;7.00;99.90;;;;;;4390028;32;20577;-63
2022/01/17 01:08:10;;;;;;;386.73;368.90;;;7.00;99.90;;;;;;4390174;32;20182;-62
2022/01/17 01:10:37;;;;;;;372.70;356.33;;;7.10;99.90;;;;;;4390640;32;20163;-63
2022/01/17 01:13:04;;;;;;;359.73;343.67;;;7.00;99.90;;;;;;4390404;32;20540;-63
2022/01/17 01:15:47;;;;;;;381.93;365.23;;;7.00;99.90;;;;;;4393670;32;20207;-64
2022/01/17 01:18:17;;;;;;;401.50;383.70;;;6.90;99.90;;;;;;4395284;32;20156;-64
2022/01/17 01:21:10;;;;;;;384.70;367.63;;;6.90;99.90;;;;;;4393131;32;20510;-68
2022/01/17 01:29:03;;;;;;;385.50;368.70;;;6.90;99.90;;;;;;4346532;33;20529;-64
2022/01/17 01:31:41;;;;;;;389.23;371.43;;;6.90;99.90;;;;;;4346579;33;20633;-66
2022/01/17 01:34:09;;;;;;;397.50;379.40;;;7.00;99.90;;;;;;4345681;33;20561;-64
2022/01/17 01:36:36;;;;;;;411.57;392.73;;;6.90;99.90;;;;;;4352239;33;20183;-66
2022/01/17 01:39:07;;;;;;;397.97;380.33;;;6.90;99.90;;;;;;4360934;32;20169;-67
2022/01/17 01:41:41;;;;;;;422.87;403.57;;;6.90;99.90;;;;;;4360360;33;20195;-65
2022/01/17 01:44:12;;;;;;;435.50;414.90;;;6.90;99.90;;;;;;4359738;32;20231;-65
2022/01/17 01:46:39;;;;;;;427.33;406.87;;;6.90;99.90;;;;;;4360694;32;20578;-63
2022/01/17 01:49:06;;;;;;;412.40;393.37;;;6.90;99.90;;;;;;4361505;32;20224;-63
2022/01/17 01:51:33;;;;;;;421.73;401.77;;;6.90;99.90;;;;;;4360137;33;20184;-67
2022/01/17 01:53:59;;;;;;;416.43;397.17;;;7.00;99.90;;;;;;4360574;32;20209;-64
2022/01/17 01:56:28;;;;;;;413.87;394.90;;;7.00;99.90;;;;;;4350148;33;20307;-63
2022/01/17 01:58:58;;;;;;;427.23;407.43;;;6.90;99.90;;;;;;4347770;33;20545;-63
2022/01/17 02:01:24;;;;;;;437.33;417.33;;;6.80;99.90;;;;;;4361300;32;20163;-66
2022/01/17 02:03:51;;;;;;;420.50;401.57;;;6.70;99.90;;;;;;4378858;32;20229;-65
2022/01/17 02:06:18;;;;;;;431.43;411.47;;;6.50;99.90;;;;;;4393980;32;20170;-64
2022/01/17 02:08:45;;;;;;;430.30;410.13;;;6.40;99.90;;;;;;4394203;32;20152;-64
2022/01/17 02:11:12;;;;;;;435.77;414.47;;;6.20;99.90;;;;;;4407208;32;20588;-66
2022/01/17 02:13:40;;;;;;;444.30;423.47;;;6.10;99.90;;;;;;4407244;32;20155;-62
2022/01/17 02:16:11;;;;;;;439.40;418.60;;;6.00;99.90;;;;;;4407323;32;20172;-67
2022/01/17 02:18:38;;;;;;;445.37;424.53;;;5.90;99.90;;;;;;4408308;32;20449;-62
2022/01/17 02:21:13;;;;;;;445.27;424.27;;;5.80;99.90;;;;;;4407244;32;20586;-66
2022/01/17 02:23:41;;;;;;;451.80;430.10;;;5.80;99.90;;;;;;4397721;32;20197;-65
2022/01/17 02:26:08;;;;;;;456.53;434.57;;;5.70;99.90;;;;;;4393124;32;20144;-64
2022/01/17 02:28:36;;;;;;;452.50;430.87;;;5.60;99.90;;;;;;4391921;32;20274;-66
2022/01/17 02:31:04;;;;;;;445.10;423.53;;;5.60;99.90;;;;;;4406150;32;20186;-67
2022/01/17 02:33:31;;;;;;;471.13;448.40;;;5.50;99.90;;;;;;4408189;32;20178;-63
2022/01/17 02:35:58;;;;;;;474.40;450.57;;;5.40;99.90;;;;;;4407328;32;20203;-65
2022/01/17 02:38:26;;;;;;;507.10;482.90;;;5.40;99.90;;;;;;4406920;32;20163;-66
2022/01/17 02:40:54;;;;;;;484.27;460.93;;;5.30;99.90;;;;;;4406015;32;20136;-63
2022/01/17 02:43:22;;;;;;;473.97;451.17;;;5.30;99.90;;;;;;4406363;32;20212;-62
2022/01/17 02:48:36;;;;;;;481.50;457.30;;;5.20;99.90;;;;;;4407495;32;20562;-63
2022/01/17 02:51:04;;;;;;;477.07;454.33;;;5.20;99.90;;;;;;4408064;32;20199;-65
2022/01/17 02:53:33;;;;;;;482.47;459.33;;;5.10;99.90;;;;;;4407684;32;20155;-64
2022/01/17 02:56:02;;;;;;;480.20;456.93;;;5.10;99.90;;;;;;4406091;32;20216;-64
2022/01/17 02:58:32;;;;;;;479.13;456.67;;;5.00;99.90;;;;;;4406910;32;20243;-65
2022/01/17 03:00:59;;;;;;;493.77;469.67;;;5.00;99.90;;;;;;4405953;32;20168;-64
2022/01/17 03:03:28;;;;;;;508.97;484.43;;;5.00;99.90;;;;;;4394546;32;20640;-64
2022/01/17 03:05:55;;;;;;;492.17;468.37;;;5.10;99.90;;;;;;4406337;32;20197;-62
2022/01/17 03:08:27;;;;;;;488.53;464.33;;;5.00;99.90;;;;;;4406649;32;20544;-63
2022/01/17 03:10:56;;;;;;;478.33;455.37;;;5.00;99.90;;;;;;4406321;32;20173;-63
2022/01/17 03:13:32;;;;;;;478.67;456.03;;;4.90;99.90;;;;;;4406433;32;20211;-65
2022/01/17 03:16:00;;;;;;;489.53;465.50;;;4.90;99.90;;;;;;4404969;32;20215;-64
2022/01/17 03:18:30;;;;;;;499.60;475.53;;;4.90;99.90;;;;;;4406303;32;20136;-63
2022/01/17 03:20:57;;;;;;;500.70;477.17;;;4.80;99.90;;;;;;4394356;32;20168;-64
2022/01/17 03:23:29;;;;;;;486.93;463.23;;;4.70;99.90;;;;;;4390947;32;20231;-66
2022/01/17 03:25:57;;;;;;;489.63;465.83;;;4.70;99.90;;;;;;4391013;32;20199;-65
2022/01/17 03:28:25;;;;;;;482.63;459.67;;;4.70;99.90;;;;;;4390876;32;20165;-63
2022/01/17 03:30:52;;;;;;;462.23;440.57;;;4.60;99.90;;;;;;4391526;32;20599;-65
2022/01/17 03:33:19;;;;;;;467.13;443.70;;;4.60;99.90;;;;;;4403723;32;20155;-63
2022/01/17 03:35:47;;;;;;;477.67;454.60;;;4.60;99.90;;;;;;4406478;32;20159;-65
2022/01/17 03:38:17;;;;;;;481.53;457.80;;;4.50;99.90;;;;;;4406623;32;20222;-63
2022/01/17 03:40:46;;;;;;;496.00;471.03;;;4.50;99.90;;;;;;4406109;32;20196;-67
2022/01/17 03:43:15;;;;;;;462.93;439.60;;;4.50;99.90;;;;;;4406660;32;20470;-62
2022/01/17 03:45:42;;;;;;;459.03;436.83;;;4.40;99.90;;;;;;4404863;32;20227;-66
2022/01/17 03:48:09;;;;;;;479.80;457.33;;;4.40;99.90;;;;;;4406222;32;20160;-64
2022/01/17 03:50:37;;;;;;;501.23;477.03;;;4.30;99.90;;;;;;4405885;32;20210;-65
2022/01/17 03:53:06;;;;;;;498.00;473.80;;;4.30;99.90;;;;;;4406741;32;20159;-64
2022/01/17 03:55:36;;;;;;;500.73;476.23;;;4.30;99.90;;;;;;4405828;32;20184;-67
2022/01/17 03:58:08;;;;;;;497.00;472.53;;;4.30;99.90;;;;;;4405425;32;20159;-61
2022/01/17 04:00:39;;;;;;;490.80;467.27;;;4.30;99.90;;;;;;4405484;32;20506;-67
2022/01/17 04:03:07;;;;;;;504.23;479.73;;;4.20;99.90;;;;;;4405771;32;20131;-64
2022/01/17 04:05:45;;;;;;;507.23;482.23;;;4.30;99.90;;;;;;4406807;32;20179;-64
2022/01/17 04:08:12;;;;;;;494.10;470.60;;;4.30;99.90;;;;;;4391190;32;20195;-62
2022/01/17 04:10:40;;;;;;;500.30;475.33;;;4.30;99.90;;;;;;4391176;32;20510;-63
2022/01/17 04:13:08;;;;;;;505.33;479.97;;;4.20;99.90;;;;;;4392296;32;20206;-63
2022/01/17 04:15:41;;;;;;;500.30;476.03;;;4.40;99.90;;;;;;4398377;32;20599;-64
2022/01/17 04:18:09;;;;;;;519.97;493.93;;;4.40;99.90;;;;;;4391075;32;20144;-64
2022/01/17 04:20:38;;;;;;;521.63;495.50;;;4.50;99.90;;;;;;4392111;32;20211;-66
2022/01/17 04:23:07;;;;;;;558.37;530.47;;;4.70;99.90;;;;;;4390581;32;20140;-64
2022/01/17 04:25:36;;;;;;;527.17;501.37;;;4.90;99.90;;;;;;4390859;32;20176;-62
2022/01/17 04:28:04;;;;;;;499.97;475.57;;;5.10;99.90;;;;;;4390314;32;20171;-62
2022/01/17 04:30:31;;;;;;;514.10;488.33;;;5.20;99.90;;;;;;4390380;32;20137;-66
2022/01/17 04:33:00;;;;;;;505.83;480.13;;;5.40;99.90;;;;;;4390180;32;20155;-63
2022/01/17 04:35:28;;;;;;;528.57;503.10;;;5.40;99.90;;;;;;4402653;32;20195;-64
2022/01/17 04:37:57;;;;;;;538.83;511.20;;;5.40;99.90;;;;;;4405389;32;20178;-67
2022/01/17 04:40:33;;;;;;;501.77;477.70;;;5.40;99.90;;;;;;4405487;32;20224;-66
2022/01/17 04:43:02;;;;;;;528.10;501.30;;;5.40;99.90;;;;;;4405314;32;20199;-63
2022/01/17 04:45:32;;;;;;;513.97;488.70;;;5.20;99.90;;;;;;4407143;32;20144;-65
2022/01/17 04:48:03;;;;;;;517.17;492.17;;;5.00;99.90;;;;;;4405567;32;20196;-64
2022/01/17 04:50:30;;;;;;;513.30;488.27;;;4.80;99.90;;;;;;4406854;32;20174;-66
2022/01/17 04:53:00;;;;;;;519.33;493.70;;;4.70;99.90;;;;;;4410130;32;20157;-65
2022/01/17 04:55:28;;;;;;;524.20;498.53;;;4.60;99.90;;;;;;4408375;32;20151;-62
2022/01/17 04:57:56;;;;;;;505.70;480.20;;;4.60;99.90;;;;;;4408650;32;20175;-66
2022/01/17 05:00:24;;;;;;;514.97;489.27;;;4.60;99.90;;;;;;4397539;32;20207;-65
2022/01/17 05:02:51;;;;;;;511.33;485.83;;;4.50;99.90;;;;;;4394001;32;20160;-64
2022/01/17 05:05:20;;;;;;;524.70;498.43;;;4.50;99.90;;;;;;4392872;32;20208;-63
2022/01/17 05:07:49;;;;;;;522.20;495.13;;;4.40;99.90;;;;;;4392944;32;20569;-62
2022/01/17 05:10:23;;;;;;;519.90;494.27;;;4.40;99.90;;;;;;4393454;32;20160;-65
2022/01/17 05:12:50;;;;;;;532.00;505.27;;;4.40;99.90;;;;;;4391807;32;20247;-63
2022/01/17 05:15:26;;;;;;;493.00;468.93;;;4.40;99.90;;;;;;4393460;32;20148;-62
2022/01/17 05:18:00;;;;;;;506.50;482.10;;;4.40;99.90;;;;;;4392827;32;20180;-61
2022/01/17 05:20:28;;;;;;;512.30;487.33;;;4.30;99.90;;;;;;4392642;32;20486;-61
2022/01/17 05:22:56;;;;;;;506.77;479.90;;;4.40;99.90;;;;;;4396223;32;20503;-62
2022/01/17 05:25:23;;;;;;;511.47;485.67;;;4.30;99.90;;;;;;4400049;32;20179;-61
2022/01/17 05:27:50;;;;;;;522.57;496.03;;;4.30;99.90;;;;;;4407836;32;20144;-65
2022/01/17 05:30:19;;;;;;;519.87;493.60;;;4.30;99.90;;;;;;4408616;32;20472;-63
2022/01/17 05:32:46;;;;;;;522.27;495.17;;;4.30;99.90;;;;;;4407608;32;20171;-62
2022/01/17 05:35:13;;;;;;;537.90;510.50;;;4.20;99.90;;;;;;4408080;32;20258;-62
2022/01/17 05:37:42;;;;;;;537.00;510.03;;;4.20;99.90;;;;;;4407707;32;20141;-65
2022/01/17 05:40:12;;;;;;;517.77;491.90;;;4.20;99.90;;;;;;4408558;32;20160;-62
2022/01/17 05:42:39;;;;;;;539.70;513.30;;;4.20;99.90;;;;;;4407881;32;20159;-65
2022/01/17 05:45:08;;;;;;;511.63;485.43;;;4.20;99.90;;;;;;4407638;32;20199;-63
2022/01/17 05:47:35;;;;;;;527.90;500.97;;;4.20;99.90;;;;;;4407420;32;20148;-63
2022/01/17 05:50:03;;;;;;;528.60;502.13;;;4.30;99.90;;;;;;4397653;32;20215;-63
2022/01/17 05:52:30;;;;;;;517.40;491.30;;;4.40;99.90;;;;;;4392128;32;20201;-62
2022/01/17 05:54:58;;;;;;;511.67;485.73;;;4.30;99.90;;;;;;4392204;32;20509;-64
2022/01/17 05:57:27;;;;;;;504.33;478.93;;;4.40;99.90;;;;;;4393131;32;20604;-64
2022/01/17 05:59:54;;;;;;;516.93;491.03;;;4.40;99.90;;;;;;4391258;32;20204;-67
2022/01/17 06:02:21;;;;;;;516.53;490.70;;;4.30;99.90;;;;;;4291258;32;3346205;-65
2022/01/17 06:04:48;;;;;;;532.57;506.07;;;4.30;99.90;;;;;;4392904;32;20160;-64
2022/01/17 06:07:15;;;;;;;517.70;491.63;;;4.20;99.90;;;;;;4392192;32;20583;-62
2022/01/17 06:09:42;;;;;;;517.57;490.90;;;4.30;99.90;;;;;;4392945;32;20204;-65
2022/01/17 06:12:11;;;;;;;513.67;487.47;;;4.30;99.90;;;;;;4396350;32;20151;-63
2022/01/17 06:14:39;;;;;;;517.00;490.97;;;4.20;99.90;;;;;;4395972;32;20172;-62
2022/01/17 06:17:06;;;;;;;504.87;479.57;;;4.20;99.90;;;;;;4399517;32;21454;-63
2022/01/17 06:19:32;;;;;;;527.90;500.83;;;4.20;99.90;;;;;;4396015;32;20244;-65
2022/01/17 06:21:59;;;;;;;520.10;493.47;;;4.20;99.90;;;;;;4398778;32;20201;-64
2022/01/17 06:24:26;;;;;;;516.37;489.47;;;4.20;99.90;;;;;;4400935;32;20203;-62
2022/01/17 06:26:53;;;;;;;524.90;497.77;;;4.30;99.90;;;;;;4396648;32;20494;-65
2022/01/17 06:29:21;;;;;;;538.13;509.80;;;4.30;99.90;;;;;;4399575;32;20152;-65
2022/01/17 06:31:48;;;;;;;513.27;486.90;;;4.30;99.90;;;;;;4399638;32;20530;-63
2022/01/17 06:34:15;;;;;;;530.93;503.33;;;4.30;99.90;;;;;;4399038;32;20174;-62
2022/01/17 06:36:42;;;;;;;540.17;512.03;;;4.40;99.90;;;;;;4394815;32;20164;-65
2022/01/17 06:39:11;;;;;;;525.83;498.20;;;4.50;99.90;;;;;;4399773;32;20156;-63
2022/01/17 06:41:39;;;;;;;528.80;500.83;;;4.60;99.90;;;;;;4399445;32;20171;-62
2022/01/17 06:44:06;;;;;;;534.10;506.67;;;4.50;99.90;;;;;;4400320;32;20172;-62
2022/01/17 06:46:36;;;;;;;527.27;499.10;;;4.50;99.90;;;;;;4396937;32;20589;-63
2022/01/17 06:49:05;;;;;;;541.57;512.67;;;4.50;99.90;;;;;;4398276;32;20160;-65
2022/01/17 06:51:31;;;;;;;527.47;499.83;;;4.50;99.90;;;;;;4399299;32;20178;-61
2022/01/17 06:53:58;;;;;;;540.83;512.07;;;4.50;99.90;;;;;;4395553;32;20203;-65
2022/01/17 06:56:25;;;;;;;524.23;495.97;;;4.50;99.90;;;;;;4398690;32;20666;-62
2022/01/17 06:58:52;;;;;;;536.17;507.77;;;4.40;99.90;;;;;;4396879;32;20190;-62
2022/01/17 07:01:21;;;;;;;537.50;509.27;;;4.40;99.90;;;;;;4395811;32;20167;-62
2022/01/17 07:03:50;;;;;;;533.93;506.13;;;4.40;99.90;;;;;;4397109;32;20177;-63
2022/01/17 07:06:17;;;;;;;522.67;495.90;;;4.30;99.90;;;;;;4396558;32;20176;-62
2022/01/17 07:08:45;;;;;;;512.00;485.07;;;4.30;99.90;;;;;;4403529;32;20235;-63
2022/01/17 07:11:12;;;;;;;521.37;494.27;;;4.20;99.90;;;;;;4403071;32;20177;-65
2022/01/17 07:13:39;;;;;;;531.97;503.87;;;4.30;99.90;;;;;;4396645;32;20156;-65
2022/01/17 07:16:05;;;;;;;540.00;511.87;;;4.30;99.90;;;;;;4405326;32;20181;-62
2022/01/17 07:18:32;;;;;;;561.23;531.07;;;4.40;99.90;;;;;;4406054;32;20186;-63
2022/01/17 07:21:00;;;;;;;540.50;511.30;;;4.40;99.90;;;;;;4407698;32;20167;-61
2022/01/17 07:23:30;;;;;;;542.50;513.03;;;4.60;99.90;;;;;;4406082;32;20203;-65
2022/01/17 07:25:57;;;;;;;547.10;517.93;;;4.80;99.90;;;;;;4405957;32;20166;-60
2022/01/17 07:28:24;;;;;;;559.57;529.17;;;4.90;99.90;;;;;;4406421;32;20551;-64
2022/01/17 07:30:51;;;;;;;546.30;516.27;;;5.00;99.90;;;;;;4406538;32;20464;-62
2022/01/17 07:33:20;;;;;;;559.40;529.30;;;5.10;99.90;;;;;;4402491;32;20226;-62
2022/01/17 07:35:48;;;;;;;554.23;524.63;;;5.20;99.90;;;;;;4391818;32;20204;-62
2022/01/17 07:38:16;;;;;;;558.57;527.13;;;5.30;99.90;;;;;;4390808;32;20183;-62
2022/01/17 07:40:43;;;;;;;570.97;539.10;;;5.20;99.90;;;;;;4391251;32;20145;-65
2022/01/17 07:43:11;;;;;;;563.33;533.40;;;5.30;99.90;;;;;;4391936;32;20479;-61
2022/01/17 07:45:44;;;;;;;542.67;513.10;;;5.40;99.90;;;;;;4390723;32;20148;-62
2022/01/17 07:50:55;;;;;;;563.50;532.00;;;5.50;99.90;;;;;;4391186;32;20158;-65
2022/01/17 07:53:24;;;;;;;556.03;525.37;;;5.60;99.90;;;;;;4390650;32;20168;-62
2022/01/17 07:55:51;;;;;;;584.40;551.87;;;5.70;99.90;;;;;;4390661;32;20160;-63
2022/01/17 07:58:17;;;;;;;573.17;541.10;;;5.70;99.90;;;;;;4390231;32;20188;-63
2022/01/17 08:00:44;;;;;;;576.73;545.90;;;5.70;99.90;;;;;;4390794;32;20197;-63
2022/01/17 08:03:11;;;;;;;567.87;538.07;;;5.90;99.90;;;;;;4392079;32;20148;-62
2022/01/17 08:05:38;;;;;;;533.40;504.37;;;5.90;99.90;;;;;;4390546;32;20210;-63
2022/01/17 08:08:05;;;;;;;544.13;515.47;;;5.90;99.90;;;;;;4390717;32;20167;-65
2022/01/17 08:10:33;;;;;;;550.63;522.13;;;5.90;99.90;;;;;;4390535;32;20148;-64
2022/01/17 08:13:00;;;;;;;558.13;529.33;;;5.90;99.90;;;;;;4396349;32;20171;-62
2022/01/17 08:15:31;;;;;;;542.77;515.07;;;6.00;99.90;;;;;;4395742;32;20197;-63
2022/01/17 08:17:58;;;;;;;555.10;525.53;;;6.10;99.90;;;;;;4405622;32;20171;-65
2022/01/17 08:20:25;;;;;;;545.33;517.63;;;6.20;99.90;;;;;;4406972;32;20140;-63
2022/01/17 08:22:52;;;;;;;545.57;516.50;;;6.20;99.90;;;;;;4404854;32;20514;-63
2022/01/17 08:25:19;;;;;;;561.07;532.17;;;6.30;99.90;;;;;;4405246;32;20140;-66
2022/01/17 08:27:48;;;;;;;568.00;538.00;;;6.40;99.90;;;;;;4405244;32;20170;-64
2022/01/17 08:30:15;;;;;;;562.43;533.27;;;6.40;99.90;;;;;;4406608;32;20228;-66
2022/01/17 08:32:42;;;;;;;558.23;529.57;;;6.50;99.90;;;;;;4405269;32;20162;-65
2022/01/17 08:35:09;;;;;;;552.03;522.90;;;6.60;99.90;;;;;;4405410;32;20149;-62
2022/01/17 08:37:36;;;;;;;551.50;523.00;;;6.60;99.90;;;;;;4405270;32;20205;-66
2022/01/17 08:40:06;;;;;;;546.10;518.27;;;6.60;99.90;;;;;;4405798;32;20175;-66
2022/01/17 08:42:37;;;;;;;557.97;529.13;;;6.60;99.90;;;;;;4400810;32;20219;-64
2022/01/17 08:45:13;;;;;;;552.43;523.53;;;6.70;99.90;;;;;;4391536;32;20269;-65
2022/01/17 08:47:49;;;;;;;533.83;505.87;;;6.70;99.90;;;;;;4397693;32;20186;-62
2022/01/17 08:50:27;;;;;;;545.83;517.50;;;6.70;99.90;;;;;;4390855;32;20227;-63
2022/01/17 08:52:57;;;;;;;567.80;538.77;;;6.70;99.90;;;;;;4394054;32;20148;-65
2022/01/17 08:55:27;;;;;;;537.57;510.30;;;6.80;99.90;;;;;;4404714;32;20148;-63
2022/01/17 08:57:59;;;;;;;525.77;499.30;;;6.80;99.90;;;;;;4405360;32;20544;-63
2022/01/17 09:00:27;;;;;;;527.67;499.67;;;6.80;99.90;;;;;;4399892;32;20229;-62
2022/01/17 09:02:54;;;;;;;541.03;512.67;;;6.90;99.90;;;;;;4391897;32;20152;-64
2022/01/17 09:05:25;;;;;;;542.63;513.17;;;6.90;99.90;;;;;;4401114;32;20381;-64
2022/01/17 09:07:52;;;;;;;541.00;513.07;;;7.00;99.90;;;;;;4392217;32;20152;-62
2022/01/17 09:10:28;;;;;;;561.87;532.63;;;7.00;99.90;;;;;;4394742;32;20152;-64
2022/01/17 09:12:56;;;;;;;525.40;498.70;;;7.10;99.90;;;;;;4392263;32;20622;-65
2022/01/17 09:15:29;;;;;;;549.00;520.17;;;7.20;99.90;;;;;;4402337;32;20152;-65
2022/01/17 09:18:00;;;;;;;550.07;521.13;;;7.30;99.90;;;;;;4390147;32;20164;-61
2022/01/17 09:20:27;;;;;;;554.47;525.50;;;7.30;99.90;;;;;;4395758;32;20212;-65
2022/01/17 09:23:00;;;;;;;562.53;533.53;;;7.40;99.90;;;;;;4390847;32;20178;-65
2022/01/17 09:25:27;;;;;;;570.57;539.60;;;7.40;99.90;;;;;;4386262;32;20629;-64
2022/01/17 09:27:57;;;;;;;560.37;531.30;;;7.40;99.90;;;;;;4390607;32;20171;-63
2022/01/17 09:30:29;;;;;;;543.87;515.90;;;7.40;99.90;;;;;;4392387;32;20159;-65
2022/01/17 09:33:03;;;;;;;558.20;528.70;;;7.60;99.90;;;;;;4394842;32;20157;-66
2022/01/17 09:35:30;;;;;;;557.77;527.37;;;7.60;99.90;;;;;;4395888;32;20156;-64
2022/01/17 09:38:05;;;;;;;552.13;522.83;;;7.70;99.90;;;;;;4399685;32;20174;-62
2022/01/17 09:40:33;;;;;;;554.07;524.87;;;7.80;99.90;;;;;;4396822;32;20204;-64
2022/01/17 09:43:02;;;;;;;550.60;521.80;;;7.80;99.90;;;;;;4400289;32;20603;-63
2022/01/17 09:45:30;;;;;;;564.03;534.10;;;7.90;99.90;;;;;;4401707;32;20179;-63
2022/01/17 09:48:00;;;;;;;555.00;526.17;;;7.90;99.90;;;;;;4401564;32;20175;-65
2022/01/17 09:50:44;;;;;;;573.60;543.60;;;8.00;99.90;;;;;;4400410;32;20164;-65
2022/01/17 09:53:21;;;;;;;568.87;539.20;;;8.10;99.90;;;;;;4402162;32;20154;-63
2022/01/17 09:55:49;;;;;;;556.47;527.10;;;8.20;99.90;;;;;;4398589;32;20155;-62
2022/01/17 09:58:16;;;;;;;567.10;537.63;;;8.20;99.90;;;;;;4399028;32;20164;-65
2022/01/17 10:00:45;;;;;;;554.77;525.00;;;8.30;99.90;;;;;;4397546;32;20219;-62
2022/01/17 10:03:21;;;;;;;566.23;536.97;;;8.30;99.90;;;;;;4394939;32;20206;-62
2022/01/17 10:05:50;;;;;;;568.17;537.67;;;8.30;99.90;;;;;;4390933;32;20178;-63
2022/01/17 10:08:20;;;;;;;573.60;543.50;;;8.30;99.90;;;;;;4400516;32;20209;-65
2022/01/17 10:10:52;;;;;;;585.17;552.93;;;8.40;99.90;;;;;;4399932;32;20633;-63
2022/01/17 10:13:23;;;;;;;581.30;549.90;;;8.50;99.90;;;;;;4399694;32;20531;-64
2022/01/17 10:16:03;;;;;;;577.90;546.73;;;8.40;99.90;;;;;;4394498;32;20148;-62
2022/01/17 10:18:37;;;;;;;576.10;546.27;;;8.40;99.90;;;;;;4403299;32;20177;-64
2022/01/17 10:21:11;;;;;;;591.13;559.70;;;8.40;99.90;;;;;;4395917;32;20242;-64
2022/01/17 10:24:11;;;;;;;580.83;549.23;;;8.50;99.90;;;;;;4395212;32;20634;-62
2022/01/17 10:27:00;;;;;;;556.83;527.87;;;8.50;99.90;;;;;;4398720;32;20157;-63
2022/01/17 10:35:14;;;;;;;559.87;530.57;;;8.50;99.90;;;;;;4391710;32;20198;-62
2022/01/17 10:37:54;;;;;;;558.97;529.70;;;8.50;99.90;;;;;;4395995;32;20157;-63
2022/01/17 10:40:21;;;;;;;565.30;535.23;;;8.60;99.90;;;;;;4395666;32;20153;-65
2022/01/17 10:42:51;;;;;;;582.33;551.20;;;8.60;99.90;;;;;;4400169;32;20469;-64
2022/01/17 10:45:24;;;;;;;576.33;545.63;;;8.60;99.90;;;;;;4396167;32;20534;-63
2022/01/17 10:47:53;;;;;;;573.87;542.43;;;8.70;99.90;;;;;;4400879;32;20169;-64
2022/01/17 10:50:24;;;;;;;569.63;538.80;;;8.60;99.90;;;;;;4393384;32;20343;-66
2022/01/17 10:52:53;;;;;;;582.27;551.43;;;8.50;99.90;;;;;;4395159;32;20736;-65
2022/01/17 10:55:24;;;;;;;613.90;580.03;;;8.60;99.90;;;;;;4395282;32;20140;-63
2022/01/17 10:57:53;;;;;;;604.63;571.73;;;8.70;99.90;;;;;;4392718;32;20624;-63
2022/01/17 11:00:23;;;;;;;591.10;558.30;;;8.90;99.90;;;;;;4391567;32;20193;-63
2022/01/17 11:05:44;;;;;;;581.30;550.83;;;8.80;99.90;;;;;;4390078;32;20176;-66
2022/01/17 11:08:14;;;;;;;573.13;543.43;;;8.90;99.90;;;;;;4393081;32;20211;-63
2022/01/17 11:10:44;;;;;;;568.90;538.67;;;8.80;99.90;;;;;;4397699;32;20178;-63
2022/01/17 11:13:19;;;;;;;611.77;578.27;;;8.90;99.90;;;;;;4397171;32;20217;-66
2022/01/17 11:15:52;;;;;;;589.57;558.13;;;9.10;99.90;;;;;;4395972;32;20603;-63
2022/01/17 11:18:27;;;;;;;578.40;547.47;;;9.20;99.90;;;;;;4393522;32;20210;-62
2022/01/17 11:21:03;;;;;;;560.83;531.90;;;9.20;99.90;;;;;;4395756;32;20196;-66
2022/01/17 11:23:36;;;;;;;544.90;517.20;;;9.30;99.90;;;;;;4393954;32;20212;-62
2022/01/17 11:26:06;;;;;;;568.23;538.63;;;9.30;99.90;;;;;;4397937;32;20160;-65
2022/01/17 11:28:39;;;;;;;558.97;529.40;;;9.50;99.90;;;;;;4395166;32;20214;-65
2022/01/17 11:31:12;;;;;;;564.27;534.43;;;9.60;99.90;;;;;;4391599;32;20681;-65
2022/01/17 11:33:39;;;;;;;540.93;512.53;;;9.60;99.90;;;;;;4396513;32;20214;-65
2022/01/17 11:36:06;;;;;;;566.07;536.53;;;9.60;99.90;;;;;;4395857;32;20163;-64
2022/01/17 11:38:39;;;;;;;532.63;505.23;;;9.70;99.90;;;;;;4395850;32;20175;-66
2022/01/17 11:41:20;;;;;;;551.87;523.57;;;9.50;99.90;;;;;;4395127;32;20201;-65
2022/01/17 11:43:56;;;;;;;548.10;519.93;;;9.40;99.90;;;;;;4397204;32;20230;-64
2022/01/17 11:46:26;;;;;;;558.13;529.57;;;9.50;99.90;;;;;;4397102;32;20157;-63
2022/01/17 11:48:55;;;;;;;565.20;536.07;;;9.50;99.90;;;;;;4397206;32;20490;-66
2022/01/17 11:51:22;;;;;;;568.10;537.80;;;9.40;99.90;;;;;;4397414;32;20182;-64
2022/01/17 11:53:53;;;;;;;533.17;506.07;;;9.50;99.90;;;;;;4396928;32;20214;-66
2022/01/17 11:56:48;;;;;;;551.37;522.27;;;9.40;99.90;;;;;;4391235;32;20238;-63
2022/01/17 11:59:42;;;;;;;534.13;506.67;;;9.60;99.90;;;;;;4395705;32;20223;-63
2022/01/17 12:02:24;;;;;;;517.33;490.73;;;9.70;99.90;;;;;;4401758;32;20235;-65
2022/01/17 12:05:28;;;;;;;553.70;526.07;;;9.70;99.90;;;;;;4389627;32;20530;-64
2022/01/17 12:07:58;;;;;;;521.37;494.20;;;9.70;99.90;;;;;;4397746;32;20605;-67
2022/01/17 12:10:39;;;;;;;538.53;510.67;;;9.50;99.90;;;;;;4389810;32;20523;-67
2022/01/17 12:13:41;;;;;;;549.13;519.80;;;9.40;99.90;;;;;;4400266;32;20148;-66
2022/01/17 12:16:34;;;;;;;542.73;515.43;;;9.40;99.90;;;;;;4404566;32;20204;-65
2022/01/17 12:19:09;;;;;;;532.20;504.10;;;9.50;99.90;;;;;;4403946;32;20155;-62
2022/01/17 12:21:41;;;;;;;536.70;508.77;;;9.60;99.90;;;;;;4404612;32;20156;-65
2022/01/17 12:24:42;;;;;;;522.70;496.00;;;9.70;99.90;;;;;;4400696;32;20172;-64
2022/01/17 12:27:23;;;;;;;514.10;487.73;;;9.70;99.90;;;;;;4335504;33;20228;-63
2022/01/17 12:30:10;;;;;;;519.33;493.03;;;9.50;99.90;;;;;;4342992;33;20180;-64
2022/01/17 12:32:52;;;;;;;532.67;504.50;;;9.60;99.90;;;;;;4331933;33;20205;-63
2022/01/17 12:35:26;;;;;;;505.77;480.50;;;9.50;99.90;;;;;;4340380;33;20220;-65
2022/01/17 12:38:05;;;;;;;538.97;511.33;;;9.50;99.90;;;;;;4340170;33;20490;-64
2022/01/17 12:40:33;;;;;;;540.07;511.57;;;9.70;99.90;;;;;;4340262;33;20203;-65
2022/01/17 12:43:06;;;;;;;535.23;507.70;;;9.80;99.90;;;;;;4339912;33;20172;-62
2022/01/17 12:45:36;;;;;;;544.30;515.17;;;9.80;99.90;;;;;;4328507;33;20163;-66
2022/01/17 12:48:08;;;;;;;526.93;499.73;;;9.80;99.90;;;;;;4343224;33;20162;-63
2022/01/17 12:50:37;;;;;;;538.60;511.23;;;9.70;99.90;;;;;;4342986;33;20198;-63
2022/01/17 12:53:09;;;;;;;539.03;512.13;;;9.60;99.90;;;;;;4342402;33;20605;-65
2022/01/17 12:55:40;;;;;;;544.17;515.97;;;9.60;99.90;;;;;;4342960;33;20675;-62